Jatei, Brazil
Current Conditions -  °F | °C
As of 7:00 AM on Friday 24 Oct 2014 (Local Time) from SBCG Reporting Station
Broken Clouds Broken Clouds  
Wind Chill: 70°   Ceiling: 10000
Heat Index: 70°   Visibility: 6mi
Dew Point: 66°   Wind: 5mph
Humidity: 88%   Direction: 20°NNE
Pressure: 29.97"   Gusts: NA
Location:  22.48°S, 54.3°W
Report Text: SBCG 241000Z 02004KT 9999 SCT040 FEW045TCU BKN100 21/19 Q1015
Loading
Personal Weather Stations






























Interactive Weather Map
Tropical Storm Tracking
New forecast layout! Learn more

10-Day Weather Forecast

Advertisements
Track Severe Weather on mobile